Time;durP1;ratioP1;P1;durP2;ratioP2;P2;SDS_P1;SDS_P2;PMS_P1;PMS_P2;Temp;Humidity;BMP_temperature;BMP_pressure;BME280_temperature;BME280_humidity;BME280_pressure;Samples;Min_cycle;Max_cycle;Signal;HPM_P1;HPM_P2
2021/10/07 00:01:00;;;;;;;3.13;2.83;;;10.20;99.90;;;;;;5093492;28;20177;-68
2021/10/07 00:03:25;;;;;;;3.37;2.60;;;10.40;99.90;;;;;;5094737;28;20173;-68
2021/10/07 00:05:51;;;;;;;3.20;3.00;;;10.40;99.90;;;;;;5094726;28;20198;-69
2021/10/07 00:08:16;;;;;;;2.80;2.60;;;10.30;99.90;;;;;;5095083;28;20227;-68
2021/10/07 00:10:42;;;;;;;4.23;2.80;;;10.10;99.90;;;;;;5094830;28;20510;-68
2021/10/07 00:13:07;;;;;;;3.93;3.23;;;10.10;99.90;;;;;;5094644;28;20219;-69
2021/10/07 00:15:33;;;;;;;2.83;2.57;;;10.10;99.90;;;;;;5094317;28;20202;-68
2021/10/07 00:17:58;;;;;;;4.30;2.80;;;10.00;99.90;;;;;;5094542;28;20181;-68
2021/10/07 00:20:24;;;;;;;4.43;3.37;;;10.00;99.90;;;;;;5094808;28;20164;-68
2021/10/07 00:22:50;;;;;;;2.33;2.13;;;9.90;99.90;;;;;;5094389;28;20253;-68
2021/10/07 00:25:16;;;;;;;3.43;2.97;;;9.90;99.90;;;;;;5094284;28;20179;-68
2021/10/07 00:27:42;;;;;;;4.07;2.70;;;10.10;99.90;;;;;;5094441;28;20181;-68
2021/10/07 00:30:13;;;;;;;2.83;2.57;;;10.20;99.90;;;;;;5094277;28;20422;-67
2021/10/07 00:32:47;;;;;;;2.70;2.50;;;10.00;99.90;;;;;;5094461;28;20787;-67
2021/10/07 00:40:31;;;;;;;2.90;2.43;;;9.80;99.90;;;;;;5094267;28;20432;-68
2021/10/07 00:42:57;;;;;;;3.07;2.87;;;9.80;99.90;;;;;;5092768;28;20427;-68
2021/10/07 00:45:22;;;;;;;2.90;2.70;;;9.80;99.90;;;;;;5093405;28;20184;-69
2021/10/07 00:47:47;;;;;;;3.03;2.80;;;9.70;99.90;;;;;;5094260;28;20227;-68
2021/10/07 00:50:13;;;;;;;3.10;2.70;;;9.70;99.90;;;;;;5092736;28;20232;-68
2021/10/07 00:52:38;;;;;;;2.40;2.20;;;9.70;99.90;;;;;;5073782;28;20220;-68
2021/10/07 00:55:07;;;;;;;2.50;2.23;;;9.60;99.90;;;;;;5073290;28;20193;-68
2021/10/07 00:57:32;;;;;;;6.80;3.03;;;9.60;99.90;;;;;;5073896;28;20218;-67
2021/10/07 00:59:57;;;;;;;3.50;2.93;;;9.60;99.90;;;;;;5090671;28;20511;-68
2021/10/07 01:02:23;;;;;;;3.80;2.97;;;9.60;99.90;;;;;;5093704;28;20198;-68
2021/10/07 01:04:49;;;;;;;3.23;2.10;;;9.60;99.90;;;;;;5094014;28;20177;-68
2021/10/07 01:07:16;;;;;;;5.23;2.23;;;9.60;99.90;;;;;;5093479;28;20197;-68
2021/10/07 01:09:41;;;;;;;2.70;2.40;;;9.60;99.90;;;;;;5093881;28;20621;-69
2021/10/07 01:12:08;;;;;;;2.63;2.13;;;9.60;99.90;;;;;;5093734;28;20418;-69
2021/10/07 01:14:53;;;;;;;2.63;2.53;;;9.60;99.90;;;;;;5093602;28;20190;-68
2021/10/07 01:17:25;;;;;;;3.83;3.50;;;9.60;99.90;;;;;;5093556;28;20534;-68
2021/10/07 01:19:52;;;;;;;2.70;2.50;;;9.60;99.90;;;;;;5093631;28;20407;-69
2021/10/07 01:22:20;;;;;;;2.83;2.63;;;9.50;99.90;;;;;;5093343;28;20504;-68
2021/10/07 01:24:46;;;;;;;4.00;2.87;;;9.50;99.90;;;;;;5093503;28;20409;-68
2021/10/07 01:27:32;;;;;;;3.27;2.97;;;9.50;99.90;;;;;;5093161;28;20431;-68
2021/10/07 01:30:01;;;;;;;3.07;2.87;;;9.50;99.90;;;;;;5091938;28;20502;-68
2021/10/07 01:32:27;;;;;;;2.57;1.80;;;9.60;99.90;;;;;;5093176;28;20435;-68
2021/10/07 01:34:53;;;;;;;3.37;2.70;;;9.60;99.90;;;;;;5092978;28;20456;-68
2021/10/07 01:37:18;;;;;;;2.57;2.40;;;9.70;99.90;;;;;;5092883;28;20431;-68
2021/10/07 01:39:44;;;;;;;3.67;3.27;;;9.60;99.90;;;;;;5093058;28;20247;-69
2021/10/07 01:42:10;;;;;;;2.47;2.27;;;9.50;99.90;;;;;;5092827;28;20172;-68
2021/10/07 01:44:35;;;;;;;3.03;2.77;;;9.40;99.90;;;;;;5092762;28;20460;-68
2021/10/07 01:47:01;;;;;;;2.30;1.93;;;9.40;99.90;;;;;;5092828;28;20201;-68
2021/10/07 01:49:26;;;;;;;2.83;2.40;;;9.40;99.90;;;;;;5092832;28;20582;-68
2021/10/07 01:51:52;;;;;;;2.43;2.30;;;9.30;99.90;;;;;;5091539;28;20280;-68
2021/10/07 01:54:18;;;;;;;3.10;2.63;;;9.40;99.90;;;;;;5092122;28;20187;-68
2021/10/07 01:56:43;;;;;;;3.73;3.17;;;9.40;99.90;;;;;;5092591;28;20187;-68
2021/10/07 01:59:09;;;;;;;5.20;2.57;;;9.40;99.90;;;;;;5092495;28;20636;-68
2021/10/07 02:01:35;;;;;;;3.47;2.80;;;9.40;99.90;;;;;;5092804;28;20174;-68
2021/10/07 02:04:02;;;;;;;3.37;2.40;;;9.40;99.90;;;;;;5092456;28;20168;-68
2021/10/07 02:06:28;;;;;;;2.43;2.20;;;9.40;99.90;;;;;;5092403;28;20614;-68
2021/10/07 02:08:54;;;;;;;3.20;2.90;;;9.30;99.90;;;;;;5092457;28;20448;-68
2021/10/07 02:11:19;;;;;;;4.40;2.50;;;9.40;99.90;;;;;;5092316;28;20406;-68
2021/10/07 02:13:44;;;;;;;3.40;3.10;;;9.30;99.90;;;;;;5092475;28;20161;-68
2021/10/07 02:16:10;;;;;;;3.73;3.33;;;9.30;99.90;;;;;;5092392;28;20199;-68
2021/10/07 02:18:35;;;;;;;4.03;3.33;;;9.20;99.90;;;;;;5092255;28;20177;-68
2021/10/07 02:21:01;;;;;;;3.93;2.87;;;9.40;99.90;;;;;;5092306;28;20196;-68
2021/10/07 02:23:26;;;;;;;5.00;3.17;;;9.40;99.90;;;;;;5092291;28;20161;-68
2021/10/07 02:25:52;;;;;;;3.10;2.80;;;9.50;99.90;;;;;;5092103;28;20197;-68
2021/10/07 02:28:17;;;;;;;3.33;2.60;;;9.30;99.90;;;;;;5092253;28;20238;-68
2021/10/07 02:30:44;;;;;;;3.60;2.83;;;9.30;99.90;;;;;;5092241;28;20171;-68
2021/10/07 02:33:10;;;;;;;4.10;3.70;;;9.20;99.90;;;;;;5092086;28;20180;-68
2021/10/07 02:35:35;;;;;;;3.70;2.80;;;9.20;99.90;;;;;;5091989;28;20450;-69
2021/10/07 02:38:01;;;;;;;4.63;2.97;;;9.20;99.90;;;;;;5092139;28;20944;-68
2021/10/07 02:40:30;;;;;;;2.40;2.20;;;9.20;99.90;;;;;;5091861;28;20162;-68
2021/10/07 02:42:55;;;;;;;3.20;2.90;;;9.30;99.90;;;;;;5091932;28;20416;-68
2021/10/07 02:45:21;;;;;;;3.63;2.57;;;9.30;99.90;;;;;;5091843;28;20407;-68
2021/10/07 02:47:47;;;;;;;3.20;2.90;;;9.30;99.90;;;;;;5091965;28;20180;-68
2021/10/07 02:50:13;;;;;;;2.80;2.50;;;9.20;99.90;;;;;;5091953;28;20777;-68
2021/10/07 02:52:39;;;;;;;3.00;2.37;;;9.00;99.90;;;;;;5091980;28;20172;-67
2021/10/07 02:55:05;;;;;;;2.80;2.60;;;9.30;99.90;;;;;;5091512;28;20450;-68
2021/10/07 02:57:30;;;;;;;2.83;2.63;;;9.30;99.90;;;;;;5091965;28;20180;-68
2021/10/07 02:59:56;;;;;;;3.33;2.40;;;9.20;99.90;;;;;;5091891;28;20172;-69
2021/10/07 03:02:21;;;;;;;3.07;2.80;;;9.10;99.90;;;;;;5091768;28;20560;-68
2021/10/07 03:04:49;;;;;;;4.33;3.10;;;9.00;99.90;;;;;;5091839;28;20256;-68
2021/10/07 03:07:14;;;;;;;5.87;2.33;;;9.00;99.90;;;;;;5094596;28;20193;-68
2021/10/07 03:09:40;;;;;;;3.73;3.10;;;9.00;99.90;;;;;;5095935;28;20763;-68
2021/10/07 03:12:07;;;;;;;3.70;2.87;;;9.00;99.90;;;;;;5095912;28;20236;-68
2021/10/07 03:14:33;;;;;;;2.80;2.50;;;9.00;99.90;;;;;;5095727;28;20192;-69
2021/10/07 03:16:58;;;;;;;4.70;2.67;;;8.90;99.90;;;;;;5095570;28;20792;-68
2021/10/07 03:19:23;;;;;;;2.83;2.63;;;8.90;99.90;;;;;;5095856;28;20180;-68
2021/10/07 03:21:49;;;;;;;3.50;3.20;;;8.90;99.90;;;;;;5094468;28;20186;-68
2021/10/07 03:24:14;;;;;;;3.17;2.87;;;8.80;99.90;;;;;;5075264;28;20247;-68
2021/10/07 03:26:40;;;;;;;2.73;2.40;;;8.80;99.90;;;;;;5075447;28;20271;-68
2021/10/07 03:29:05;;;;;;;4.90;2.87;;;8.80;99.90;;;;;;5074090;28;20177;-68
2021/10/07 03:31:31;;;;;;;3.73;3.23;;;8.80;99.90;;;;;;5075245;28;20278;-68
2021/10/07 03:33:57;;;;;;;3.00;2.50;;;8.70;99.90;;;;;;5075206;28;20200;-68
2021/10/07 03:36:22;;;;;;;3.17;2.87;;;8.70;99.90;;;;;;5075317;28;20233;-68
2021/10/07 03:38:48;;;;;;;3.90;3.00;;;8.70;99.90;;;;;;5075158;28;20656;-68
2021/10/07 03:41:13;;;;;;;3.50;2.37;;;8.70;99.90;;;;;;5075117;28;20555;-68
2021/10/07 03:43:39;;;;;;;3.90;2.40;;;8.70;99.90;;;;;;5075113;28;20170;-68
2021/10/07 03:46:04;;;;;;;2.27;2.07;;;8.70;99.90;;;;;;5075071;28;20693;-68
2021/10/07 03:48:30;;;;;;;5.53;3.00;;;8.70;99.90;;;;;;5075108;28;20250;-69
2021/10/07 03:50:55;;;;;;;4.23;2.90;;;8.70;99.90;;;;;;5075101;28;20206;-68
2021/10/07 03:53:22;;;;;;;3.30;2.47;;;8.70;99.90;;;;;;5074920;28;20176;-69
2021/10/07 03:55:47;;;;;;;3.40;2.40;;;8.70;99.90;;;;;;5074905;28;20211;-68
2021/10/07 03:58:13;;;;;;;5.23;3.60;;;8.80;99.90;;;;;;5074946;28;20504;-68
2021/10/07 04:00:38;;;;;;;2.83;2.43;;;8.70;99.90;;;;;;5075129;28;20176;-68
2021/10/07 04:03:04;;;;;;;3.63;2.50;;;8.70;99.90;;;;;;5074671;28;20226;-68
2021/10/07 04:05:30;;;;;;;2.97;2.77;;;8.60;99.90;;;;;;5074669;28;20574;-68
2021/10/07 04:07:55;;;;;;;2.87;2.67;;;8.60;99.90;;;;;;5074582;28;20532;-68
2021/10/07 04:10:21;;;;;;;8.13;3.30;;;8.90;99.90;;;;;;5075084;28;20161;-68
2021/10/07 04:12:46;;;;;;;2.40;2.20;;;8.70;99.90;;;;;;5074615;28;20161;-68
2021/10/07 04:15:11;;;;;;;4.67;3.23;;;8.70;99.90;;;;;;5074552;28;20199;-68
2021/10/07 04:17:37;;;;;;;4.73;3.07;;;8.70;99.90;;;;;;5073982;28;20194;-68
2021/10/07 04:20:04;;;;;;;3.07;2.60;;;8.80;99.90;;;;;;5074383;28;20682;-68
2021/10/07 04:22:30;;;;;;;4.80;2.90;;;8.90;99.90;;;;;;5074102;28;20197;-68
2021/10/07 04:24:56;;;;;;;5.17;3.60;;;8.70;99.90;;;;;;5074248;28;20414;-68
2021/10/07 04:27:22;;;;;;;3.40;3.00;;;8.70;99.90;;;;;;5074171;28;20187;-68
2021/10/07 04:29:47;;;;;;;2.60;2.40;;;8.70;99.90;;;;;;5074194;28;20417;-69
2021/10/07 04:32:13;;;;;;;2.67;2.23;;;8.70;99.90;;;;;;5074075;28;20404;-69
2021/10/07 04:34:38;;;;;;;8.20;3.87;;;8.60;99.90;;;;;;5073932;28;20689;-69
2021/10/07 04:37:04;;;;;;;3.63;3.30;;;8.60;99.90;;;;;;5074064;28;20325;-69
2021/10/07 04:39:30;;;;;;;4.90;3.17;;;8.60;99.90;;;;;;5073988;28;20165;-69
2021/10/07 04:41:56;;;;;;;4.10;2.73;;;8.60;99.90;;;;;;5073988;28;20985;-69
2021/10/07 04:44:21;;;;;;;2.93;2.60;;;8.50;99.90;;;;;;5073842;28;20198;-69
2021/10/07 04:46:47;;;;;;;3.30;2.50;;;8.50;99.90;;;;;;5073824;28;20464;-69
2021/10/07 04:49:12;;;;;;;3.13;2.30;;;8.40;99.90;;;;;;5073887;28;20178;-69
2021/10/07 04:51:38;;;;;;;3.97;2.70;;;8.50;99.90;;;;;;5073795;28;20246;-69
2021/10/07 04:54:03;;;;;;;3.20;2.40;;;8.50;99.90;;;;;;5073544;28;20176;-69
2021/10/07 04:56:29;;;;;;;2.33;2.13;;;8.50;99.90;;;;;;5074287;28;20199;-69
2021/10/07 04:58:54;;;;;;;2.93;2.63;;;8.50;99.90;;;;;;5073735;28;20225;-69
2021/10/07 05:01:21;;;;;;;5.60;2.90;;;8.50;99.90;;;;;;5073656;28;20234;-69
2021/10/07 05:03:47;;;;;;;2.47;2.27;;;8.50;99.90;;;;;;5073567;28;20180;-69
2021/10/07 05:06:13;;;;;;;3.73;2.87;;;8.50;99.90;;;;;;5073338;28;20433;-69
2021/10/07 05:08:38;;;;;;;3.90;3.43;;;8.50;99.90;;;;;;5073488;28;20515;-69
2021/10/07 05:11:05;;;;;;;3.13;2.83;;;8.50;99.90;;;;;;5073382;28;20178;-69
2021/10/07 05:13:31;;;;;;;3.23;2.93;;;8.60;99.90;;;;;;5073367;28;20770;-69
2021/10/07 05:15:56;;;;;;;3.40;3.10;;;8.50;99.90;;;;;;5073267;28;20461;-70
2021/10/07 05:18:21;;;;;;;2.63;2.43;;;8.50;99.90;;;;;;5073252;28;20271;-69
2021/10/07 05:20:49;;;;;;;4.43;3.47;;;8.60;99.90;;;;;;5073368;28;20213;-70
2021/10/07 05:23:14;;;;;;;3.93;3.50;;;8.70;99.90;;;;;;5073264;28;20253;-69
2021/10/07 05:25:40;;;;;;;5.20;3.33;;;8.80;99.90;;;;;;5072918;28;20523;-69
2021/10/07 05:28:05;;;;;;;3.97;3.10;;;8.90;99.90;;;;;;5073351;28;20740;-69
2021/10/07 05:30:31;;;;;;;3.23;2.70;;;8.90;99.90;;;;;;5073020;28;20250;-69
2021/10/07 05:32:56;;;;;;;3.70;3.20;;;9.00;99.90;;;;;;5073226;28;20656;-69
2021/10/07 05:35:22;;;;;;;5.00;2.87;;;9.00;99.90;;;;;;5072674;28;20187;-69
2021/10/07 05:37:47;;;;;;;4.03;3.27;;;9.10;99.90;;;;;;5072815;28;20719;-69
2021/10/07 05:40:13;;;;;;;4.60;3.07;;;9.00;99.90;;;;;;5072909;28;20172;-69
2021/10/07 05:42:38;;;;;;;6.03;2.90;;;9.00;99.90;;;;;;5072764;28;20209;-69
2021/10/07 05:45:06;;;;;;;4.07;3.60;;;9.20;99.90;;;;;;5072642;28;20216;-69
2021/10/07 05:47:32;;;;;;;3.60;2.93;;;9.30;99.90;;;;;;5072565;28;20246;-69
2021/10/07 05:49:57;;;;;;;3.27;2.97;;;9.30;99.90;;;;;;5079087;28;20425;-69
2021/10/07 05:52:23;;;;;;;4.80;3.90;;;9.50;99.90;;;;;;5092708;28;20182;-69
2021/10/07 05:54:48;;;;;;;3.13;2.83;;;9.40;99.90;;;;;;5092571;28;20294;-69
2021/10/07 05:57:14;;;;;;;4.70;4.17;;;9.30;99.90;;;;;;5092750;28;20262;-69
2021/10/07 05:59:39;;;;;;;4.13;3.73;;;9.60;99.90;;;;;;5092618;28;20166;-69
2021/10/07 06:02:05;;;;;;;6.30;3.93;;;9.50;99.90;;;;;;5092545;28;20172;-69
2021/10/07 06:04:30;;;;;;;4.90;4.30;;;9.50;99.90;;;;;;5092547;28;20482;-69
2021/10/07 06:06:56;;;;;;;3.60;3.30;;;9.50;99.90;;;;;;5092485;28;20187;-69
2021/10/07 06:09:21;;;;;;;5.23;3.80;;;9.40;99.90;;;;;;5092533;28;20173;-69
2021/10/07 06:11:47;;;;;;;7.50;4.90;;;9.40;99.90;;;;;;5092504;28;20545;-69
2021/10/07 06:14:12;;;;;;;7.07;3.60;;;9.50;99.90;;;;;;5092341;28;20193;-69
2021/10/07 06:16:39;;;;;;;7.30;4.90;;;9.70;99.90;;;;;;5092425;28;20185;-69
2021/10/07 06:19:08;;;;;;;3.87;3.50;;;9.80;99.90;;;;;;5092426;28;20179;-69
2021/10/07 06:21:33;;;;;;;6.00;4.37;;;10.00;99.90;;;;;;5092509;28;20404;-69
2021/10/07 06:23:59;;;;;;;5.50;5.00;;;10.60;99.90;;;;;;5092354;28;20399;-69
2021/10/07 06:26:24;;;;;;;5.70;4.87;;;10.70;99.90;;;;;;5092082;28;20766;-67
2021/10/07 06:28:50;;;;;;;6.27;4.00;;;11.00;99.90;;;;;;5092149;28;20169;-70
2021/10/07 06:31:16;;;;;;;6.87;3.53;;;11.60;99.90;;;;;;5092208;28;20162;-69
2021/10/07 06:33:42;;;;;;;3.90;3.50;;;12.50;99.90;;;;;;5092074;28;20478;-69
2021/10/07 06:36:08;;;;;;;4.10;3.70;;;12.50;99.90;;;;;;5091895;28;20487;-69
2021/10/07 06:38:33;;;;;;;4.33;3.33;;;12.30;99.90;;;;;;5092150;28;20244;-69
2021/10/07 06:40:58;;;;;;;4.20;3.63;;;11.80;99.90;;;;;;5091992;28;20576;-70
2021/10/07 06:43:32;;;;;;;3.20;2.90;;;12.60;99.90;;;;;;5091941;28;20187;-69
2021/10/07 06:45:57;;;;;;;4.20;3.73;;;13.10;99.90;;;;;;5074322;28;20226;-69
2021/10/07 06:48:23;;;;;;;3.70;3.00;;;13.10;99.90;;;;;;5092090;28;20892;-69
2021/10/07 06:50:49;;;;;;;3.33;3.00;;;12.70;99.90;;;;;;5091911;28;20172;-70
2021/10/07 06:53:14;;;;;;;4.13;3.73;;;12.70;99.90;;;;;;5091720;28;20182;-69
2021/10/07 06:55:40;;;;;;;2.70;2.50;;;13.30;99.90;;;;;;5091707;28;20215;-69
2021/10/07 06:58:06;;;;;;;3.10;2.80;;;14.00;99.90;;;;;;5091918;28;20175;-69
2021/10/07 07:00:32;;;;;;;3.40;3.10;;;14.60;99.90;;;;;;5091778;28;20627;-69
2021/10/07 07:02:58;;;;;;;2.70;2.50;;;14.00;99.90;;;;;;5087274;28;20865;-68
2021/10/07 07:05:25;;;;;;;3.60;2.73;;;13.90;99.90;;;;;;5094481;28;20416;-68
2021/10/07 07:07:51;;;;;;;4.90;3.47;;;15.10;99.90;;;;;;5091655;28;20422;-68
2021/10/07 07:10:19;;;;;;;4.80;3.13;;;15.30;99.90;;;;;;5094693;28;20499;-68
2021/10/07 07:12:46;;;;;;;2.53;2.30;;;15.10;99.90;;;;;;5091633;28;20250;-71
2021/10/07 07:15:12;;;;;;;2.00;1.80;;;14.40;99.90;;;;;;5091435;28;20840;-72
2021/10/07 07:17:38;;;;;;;2.87;2.50;;;15.10;99.90;;;;;;5091415;28;20429;-72
2021/10/07 07:20:04;;;;;;;3.20;2.70;;;15.30;99.90;;;;;;5093086;28;20515;-70
2021/10/07 07:22:29;;;;;;;5.47;3.50;;;15.70;99.90;;;;;;5091564;28;20165;-72
2021/10/07 07:24:56;;;;;;;4.30;3.53;;;15.50;99.90;;;;;;5091205;28;20421;-71
2021/10/07 07:27:21;;;;;;;2.90;2.47;;;16.80;99.90;;;;;;5091747;28;20651;-71
2021/10/07 07:29:47;;;;;;;2.73;2.40;;;17.80;99.90;;;;;;5091836;28;20415;-71
2021/10/07 07:32:12;;;;;;;3.37;2.80;;;17.50;99.90;;;;;;5091467;28;20652;-71
2021/10/07 07:34:38;;;;;;;3.90;2.63;;;17.00;99.90;;;;;;5091436;28;20663;-69
2021/10/07 07:37:03;;;;;;;2.90;2.50;;;16.20;99.90;;;;;;5093253;28;20275;-68
2021/10/07 07:39:29;;;;;;;4.43;2.90;;;16.70;99.90;;;;;;5091521;28;20162;-68
2021/10/07 07:41:55;;;;;;;3.47;2.83;;;16.70;99.90;;;;;;5091306;28;20173;-69
2021/10/07 07:44:20;;;;;;;3.80;3.43;;;17.80;99.90;;;;;;5091323;28;20651;-70
2021/10/07 07:46:46;;;;;;;3.13;2.43;;;17.50;99.90;;;;;;5091319;28;20211;-70
2021/10/07 07:49:11;;;;;;;2.93;2.60;;;17.80;99.90;;;;;;5091591;28;20336;-70
2021/10/07 07:51:37;;;;;;;2.90;2.70;;;17.80;99.90;;;;;;5091716;28;20173;-70
2021/10/07 07:54:02;;;;;;;3.30;3.00;;;17.90;99.90;;;;;;5094382;28;20185;-70
2021/10/07 07:56:28;;;;;;;3.03;2.83;;;17.40;99.90;;;;;;5077679;28;20701;-70
2021/10/07 07:58:53;;;;;;;4.03;3.00;;;17.00;99.90;;;;;;5074858;28;20165;-70
2021/10/07 08:01:20;;;;;;;3.40;3.10;;;17.10;99.90;;;;;;5074580;28;20192;-70
2021/10/07 08:03:45;;;;;;;3.13;2.83;;;17.70;99.90;;;;;;5087138;28;20220;-70
2021/10/07 08:06:11;;;;;;;2.73;2.47;;;18.90;99.90;;;;;;5094899;28;20431;-70
2021/10/07 08:08:36;;;;;;;4.00;3.53;;;19.30;99.90;;;;;;5095091;28;20173;-70
2021/10/07 08:11:02;;;;;;;3.07;2.57;;;19.20;99.90;;;;;;5094451;28;20173;-70
2021/10/07 08:13:28;;;;;;;5.57;2.80;;;20.00;99.90;;;;;;5094817;28;20230;-70
2021/10/07 08:15:53;;;;;;;3.50;3.20;;;19.30;99.90;;;;;;5094560;28;20224;-70
2021/10/07 08:18:19;;;;;;;3.57;3.03;;;19.20;99.90;;;;;;5094654;28;20190;-70
2021/10/07 08:20:45;;;;;;;4.20;3.40;;;20.30;99.90;;;;;;5094758;28;20162;-70
2021/10/07 08:23:13;;;;;;;3.40;3.20;;;20.90;99.90;;;;;;5094573;28;20406;-71
2021/10/07 08:25:39;;;;;;;3.20;2.93;;;19.30;99.90;;;;;;5094378;28;20272;-69
2021/10/07 08:28:06;;;;;;;3.60;3.20;;;18.60;99.90;;;;;;5094681;28;20490;-69
2021/10/07 08:30:31;;;;;;;3.63;3.10;;;19.60;99.90;;;;;;5094274;28;20408;-69
2021/10/07 08:32:57;;;;;;;4.57;3.43;;;18.80;99.90;;;;;;5094540;28;20490;-69
2021/10/07 08:35:23;;;;;;;4.33;3.30;;;18.90;99.90;;;;;;5094285;28;20529;-70
2021/10/07 08:37:48;;;;;;;3.70;3.20;;;19.40;99.90;;;;;;5094203;28;20241;-69
2021/10/07 08:40:15;;;;;;;4.73;4.20;;;19.30;99.90;;;;;;5094375;28;20196;-70
2021/10/07 08:42:41;;;;;;;4.27;3.73;;;19.60;99.90;;;;;;5094147;28;20639;-70
2021/10/07 08:45:08;;;;;;;3.30;3.00;;;18.80;99.90;;;;;;5094026;28;20460;-70
2021/10/07 08:47:41;;;;;;;3.00;2.80;;;19.10;99.90;;;;;;5094240;28;20204;-70
2021/10/07 08:50:09;;;;;;;3.53;2.70;;;19.30;99.90;;;;;;5093145;28;20453;-70
2021/10/07 08:52:34;;;;;;;3.33;3.03;;;18.30;99.90;;;;;;5094025;28;20423;-70
2021/10/07 08:55:00;;;;;;;2.73;2.50;;;18.60;99.90;;;;;;5093841;28;20567;-70
2021/10/07 08:57:26;;;;;;;3.03;2.77;;;19.10;99.90;;;;;;5093851;28;20188;-69
2021/10/07 08:59:51;;;;;;;2.37;2.17;;;19.60;99.90;;;;;;5093783;28;20404;-69
2021/10/07 09:02:31;;;;;;;3.10;2.50;;;20.40;99.90;;;;;;5094160;28;20170;-69
2021/10/07 09:05:24;;;;;;;2.47;2.23;;;21.30;99.90;;;;;;5092604;28;20672;-69
2021/10/07 09:08:04;;;;;;;2.93;2.63;;;20.80;99.90;;;;;;5092894;28;20443;-69
2021/10/07 09:10:36;;;;;;;2.93;2.73;;;20.60;99.90;;;;;;5095650;28;20525;-69
2021/10/07 09:13:25;;;;;;;3.00;2.70;;;20.40;99.90;;;;;;5093991;28;20890;-69
2021/10/07 09:15:59;;;;;;;3.57;2.60;;;20.60;99.90;;;;;;5093707;28;20831;-69
2021/10/07 09:18:27;;;;;;;2.50;2.30;;;19.20;99.90;;;;;;5093374;28;20438;-68
2021/10/07 09:20:53;;;;;;;3.30;3.00;;;18.00;99.90;;;;;;5093746;28;20411;-68
2021/10/07 09:23:22;;;;;;;3.53;2.93;;;18.90;99.90;;;;;;5093558;28;20423;-68
2021/10/07 09:26:07;;;;;;;3.70;2.77;;;19.30;99.90;;;;;;5093522;28;20457;-68
2021/10/07 09:28:56;;;;;;;2.57;2.40;;;19.50;99.90;;;;;;5093486;28;20435;-69
2021/10/07 09:31:27;;;;;;;3.60;3.13;;;18.50;99.90;;;;;;5073137;28;20486;-75
2021/10/07 09:33:59;;;;;;;3.53;2.73;;;19.10;99.90;;;;;;5073797;28;20419;-69
2021/10/07 09:36:25;;;;;;;4.20;2.87;;;19.30;99.90;;;;;;5093087;28;20980;-69
2021/10/07 09:38:53;;;;;;;4.50;3.40;;;18.50;99.90;;;;;;5092793;28;20418;-68
2021/10/07 09:41:29;;;;;;;2.87;2.67;;;18.40;99.90;;;;;;5092976;28;20183;-70
2021/10/07 09:44:05;;;;;;;3.83;3.00;;;18.50;99.90;;;;;;5093245;28;20410;-68
2021/10/07 09:46:51;;;;;;;3.20;2.57;;;18.60;99.90;;;;;;5093063;28;20500;-69
2021/10/07 09:49:33;;;;;;;3.70;3.00;;;18.20;99.90;;;;;;5092468;28;20497;-68
2021/10/07 09:52:01;;;;;;;2.57;2.37;;;18.20;99.90;;;;;;5096063;28;20396;-68
2021/10/07 09:54:34;;;;;;;3.30;2.73;;;17.90;99.90;;;;;;5095326;28;20430;-68
2021/10/07 09:57:02;;;;;;;4.00;2.93;;;18.00;99.90;;;;;;5094441;28;20438;-69
2021/10/07 09:59:30;;;;;;;2.87;2.67;;;17.80;99.90;;;;;;5093942;28;20509;-69
2021/10/07 10:01:58;;;;;;;3.50;2.60;;;17.70;99.90;;;;;;5093696;28;20399;-70
2021/10/07 10:04:25;;;;;;;2.53;2.37;;;17.10;99.90;;;;;;5092991;28;20432;-72
2021/10/07 10:06:51;;;;;;;2.50;2.30;;;17.40;99.90;;;;;;5075851;28;20923;-69
2021/10/07 10:09:22;;;;;;;2.37;2.17;;;17.60;99.90;;;;;;5073614;28;20469;-69
2021/10/07 10:11:47;;;;;;;3.57;2.33;;;17.50;99.90;;;;;;5092351;28;20410;-69
2021/10/07 10:14:13;;;;;;;2.53;2.33;;;17.00;99.90;;;;;;5093611;28;20406;-69
2021/10/07 10:16:41;;;;;;;2.37;2.00;;;17.30;99.90;;;;;;5093316;28;20204;-69
2021/10/07 10:19:08;;;;;;;3.37;3.07;;;17.30;99.90;;;;;;5092973;28;20506;-70
2021/10/07 10:21:41;;;;;;;2.60;2.40;;;17.20;99.90;;;;;;5093750;28;20410;-71
2021/10/07 10:24:11;;;;;;;4.90;3.20;;;17.20;99.90;;;;;;5093177;28;20487;-72
2021/10/07 10:26:38;;;;;;;2.40;2.20;;;17.00;99.90;;;;;;5093779;28;20424;-71
2021/10/07 10:29:23;;;;;;;2.70;2.50;;;17.20;99.90;;;;;;5087560;28;20406;-70
2021/10/07 10:31:53;;;;;;;3.03;2.80;;;17.20;99.90;;;;;;5073144;28;20394;-72
2021/10/07 10:34:21;;;;;;;2.33;2.13;;;17.10;99.90;;;;;;5073279;28;20432;-71
2021/10/07 10:36:58;;;;;;;3.00;2.17;;;17.00;99.90;;;;;;5073370;28;20416;-71
2021/10/07 10:39:25;;;;;;;3.70;2.40;;;17.00;99.90;;;;;;5073054;28;20391;-71
2021/10/07 10:41:55;;;;;;;2.20;2.00;;;17.10;99.90;;;;;;5073276;28;20404;-70
2021/10/07 10:44:27;;;;;;;2.50;2.30;;;17.20;99.90;;;;;;5072574;28;20425;-71
2021/10/07 10:47:13;;;;;;;3.23;2.93;;;17.10;99.90;;;;;;5080958;28;20457;-71
2021/10/07 10:49:54;;;;;;;2.30;1.90;;;17.30;99.90;;;;;;5072876;28;20414;-71
2021/10/07 10:52:29;;;;;;;3.93;2.33;;;17.10;99.90;;;;;;5072302;28;20418;-71
2021/10/07 10:55:00;;;;;;;4.27;2.47;;;17.30;99.90;;;;;;5072588;28;20410;-71
2021/10/07 10:57:26;;;;;;;8.10;4.20;;;17.20;99.90;;;;;;5072559;28;20431;-71
2021/10/07 11:00:10;;;;;;;2.27;2.07;;;17.40;99.90;;;;;;5072238;28;20415;-71
2021/10/07 11:02:37;;;;;;;2.10;1.90;;;17.60;99.90;;;;;;5083097;28;20493;-72
2021/10/07 11:05:11;;;;;;;2.27;2.07;;;17.40;99.90;;;;;;5092107;28;20472;-70
2021/10/07 11:07:37;;;;;;;2.27;2.00;;;17.20;99.90;;;;;;5092472;28;20465;-71
2021/10/07 11:10:08;;;;;;;2.10;2.00;;;17.50;99.90;;;;;;5092464;28;20414;-70
2021/10/07 11:13:04;;;;;;;5.67;3.17;;;17.80;99.90;;;;;;5092442;28;20251;-71
2021/10/07 11:15:30;;;;;;;1.87;1.67;;;18.00;99.90;;;;;;5092685;28;20509;-71
2021/10/07 11:17:58;;;;;;;1.73;1.63;;;17.70;99.90;;;;;;5092440;28;20916;-71
2021/10/07 11:20:28;;;;;;;2.90;2.43;;;17.50;99.90;;;;;;5092391;28;20463;-71
2021/10/07 11:23:15;;;;;;;2.30;1.70;;;17.70;99.90;;;;;;5092673;28;20508;-71
2021/10/07 11:25:50;;;;;;;1.83;1.67;;;17.80;99.90;;;;;;5090729;28;20473;-71
2021/10/07 11:28:23;;;;;;;1.70;1.23;;;17.90;99.90;;;;;;5095427;28;20450;-71
2021/10/07 11:30:49;;;;;;;3.10;2.17;;;18.00;99.90;;;;;;5096504;28;20490;-71
2021/10/07 11:33:14;;;;;;;3.73;2.37;;;17.90;99.90;;;;;;5096233;28;20981;-71
2021/10/07 11:35:40;;;;;;;3.50;2.10;;;17.80;99.90;;;;;;5096175;28;20198;-70
2021/10/07 11:38:14;;;;;;;2.60;1.60;;;17.80;99.90;;;;;;5096338;28;20632;-71
2021/10/07 11:40:52;;;;;;;1.63;1.30;;;17.70;99.90;;;;;;5096215;28;20555;-71
2021/10/07 11:43:29;;;;;;;3.10;2.10;;;17.40;99.90;;;;;;5095589;28;20767;-71
2021/10/07 11:46:04;;;;;;;1.50;1.40;;;17.50;99.90;;;;;;5094180;28;20454;-70
2021/10/07 11:48:29;;;;;;;1.70;1.60;;;17.80;99.90;;;;;;5095408;28;20766;-71
2021/10/07 11:50:59;;;;;;;1.40;1.03;;;17.80;99.90;;;;;;5095353;28;20402;-70
2021/10/07 11:53:41;;;;;;;1.60;1.50;;;17.90;99.90;;;;;;5095162;28;20197;-70
2021/10/07 11:56:10;;;;;;;1.80;1.30;;;18.10;99.90;;;;;;5095353;28;20420;-70
2021/10/07 11:58:36;;;;;;;1.30;1.13;;;18.20;99.90;;;;;;5095268;28;20509;-71
2021/10/07 12:01:01;;;;;;;1.30;1.20;;;18.10;99.90;;;;;;5094969;28;20494;-72
2021/10/07 12:03:32;;;;;;;1.73;1.60;;;18.10;99.90;;;;;;5095104;28;20184;-71
2021/10/07 12:06:01;;;;;;;3.40;1.77;;;18.00;99.90;;;;;;5094828;28;20213;-73
2021/10/07 12:08:29;;;;;;;2.90;2.50;;;17.90;99.90;;;;;;5095025;28;20402;-70
2021/10/07 12:10:58;;;;;;;1.17;1.07;;;18.00;99.90;;;;;;5094923;28;20415;-70
2021/10/07 12:13:33;;;;;;;2.20;1.63;;;18.10;99.90;;;;;;5094449;28;20408;-70
2021/10/07 12:16:16;;;;;;;1.97;1.57;;;18.20;99.90;;;;;;5094885;28;20462;-71
2021/10/07 12:18:43;;;;;;;1.53;1.20;;;18.20;99.90;;;;;;5093567;28;20439;-75
2021/10/07 12:21:14;;;;;;;1.30;1.20;;;18.10;99.90;;;;;;5093351;28;20522;-75
2021/10/07 12:24:02;;;;;;;2.27;2.07;;;18.40;99.90;;;;;;5094068;28;20431;-75
2021/10/07 12:26:33;;;;;;;4.33;3.97;;;18.30;99.90;;;;;;5094825;28;20489;-74
2021/10/07 12:29:01;;;;;;;2.13;1.93;;;18.40;99.90;;;;;;5094747;28;20780;-73
2021/10/07 12:31:30;;;;;;;1.60;1.40;;;18.20;99.90;;;;;;5094636;28;20399;-71
2021/10/07 12:34:03;;;;;;;1.20;1.00;;;18.20;99.90;;;;;;5093998;28;20511;-71
2021/10/07 12:36:35;;;;;;;1.40;1.23;;;18.20;99.90;;;;;;5094475;28;20426;-71
2021/10/07 12:39:04;;;;;;;1.67;1.50;;;18.30;99.90;;;;;;5094293;28;20421;-71
2021/10/07 12:41:36;;;;;;;1.47;1.37;;;18.30;99.90;;;;;;5094479;28;20415;-70
2021/10/07 12:44:02;;;;;;;1.67;1.57;;;18.40;99.90;;;;;;5094352;28;20403;-70
2021/10/07 12:46:28;;;;;;;2.03;1.00;;;18.30;99.90;;;;;;5094218;28;20456;-70
2021/10/07 12:48:57;;;;;;;1.67;1.00;;;18.30;99.90;;;;;;5094123;28;20169;-71
2021/10/07 12:51:26;;;;;;;1.60;1.07;;;18.30;99.90;;;;;;5094082;28;20540;-70
2021/10/07 12:53:52;;;;;;;1.10;1.00;;;18.30;99.90;;;;;;5094016;28;20404;-71
2021/10/07 12:56:25;;;;;;;0.80;0.80;;;17.90;99.90;;;;;;5094172;28;20435;-70
2021/10/07 12:58:54;;;;;;;0.83;0.83;;;18.00;99.90;;;;;;5094402;28;20905;-70